Aviation Digital Data Service (ADDS)

Output produced by METARs form (2006 UTC 10 February 2016)
found at http://www.aviationweather.gov/adds/metars/
 
KJST 101954Z AUTO 27015KT 2 1/2SM -SN BKN020 OVC025 M09/M14 A2968 RMK AO2 VIS 1 1/2V4 SLP087 P0000 T10941139
KJST 101944Z AUTO 27015KT 2SM -SN OVC020 M09/M14 A2968 RMK AO2 P0000 T10941139
KJST 101929Z AUTO 26014G20KT 1 3/4SM -SN OVC020 M09/M14 A2968 RMK AO2 P0000 T10941144
KJST 101854Z AUTO 27016G21KT 5SM -SN OVC022 M09/M14 A2968 RMK AO2 UPB00E26SNE00B05E16B33 SLP087 P0000 T10891144
KJST 101754Z AUTO 25012G21KT 7SM -SN OVC020 M09/M14 A2967 RMK AO2 UPE08SNB19 SLP085 P0000 60000 T10891139 11078 21089 52002
KJST 101654Z AUTO 29018G26KT 9SM UP BKN021 OVC026 M08/M13 A2967 RMK AO2 PK WND 24026/1621 UPB32SNE32 SLP081 P0000 T10781133
KJST 101622Z AUTO 25019G26KT 3SM -SN BKN015 OVC021 M08/M13 A2968 RMK AO2 PK WND 24026/1621 P0000 T10831133
KJST 101602Z AUTO 26014G20KT 1 3/4SM -SN BKN016 OVC024 M08/M13 A2967 RMK AO2 P0000 T10831128
KJST 101554Z AUTO 26011G23KT 3SM -SN BKN016 OVC023 M08/M13 A2967 RMK AO2 PK WND 25026/1505 SLP082 P0000 T10781128
KJST 101521Z AUTO 27014G22KT 4SM -SN BKN018 BKN023 OVC028 M08/M13 A2967 RMK AO2 PK WND 25026/1505 P0000 T10831128
KJST 101502Z AUTO 26015G22KT 2 1/2SM -SN BKN017 OVC021 M08/M12 A2967 RMK AO2 P0000 T10831122
KJST 101454Z AUTO 26013G23KT 3SM -SN OVC017 M08/M12 A2967 RMK AO2 SLP080 P0000 60000 T10831122 53008
KJST 101354Z AUTO 26016KT 4SM -SN OVC015 M08/M12 A2965 RMK AO2 PK WND 25026/1326 SLP075 P0000 T10831122
KJST 101338Z AUTO 26011G19KT 3SM -SN OVC014 M08/M12 A2965 RMK AO2 PK WND 25026/1326 P0000 T10831122
KJST 101313Z AUTO 26015KT 1 3/4SM -SN BKN013 OVC021 M08/M12 A2964 RMK AO2 P0000 T10781117
KJST 101306Z AUTO 26013G23KT 3SM -SN BKN013 OVC021 M08/M12 A2964 RMK AO2 P0000 T10781117
KJST 101254Z AUTO 26017G24KT 2 1/2SM -SN BKN013 OVC019 M08/M12 A2964 RMK AO2 PK WND 27026/1204 SLP071 P0000 T10781117
KJST 101246Z AUTO 26017G23KT 1 3/4SM -SN BKN015 OVC020 M08/M12 A2964 RMK AO2 PK WND 27026/1204 P0000 T10781117
KJST 101210Z AUTO 27013G26KT 2SM -SN BKN014 BKN019 OVC025 M08/M12 A2963 RMK AO2 PK WND 27026/1204 P0000 T10781117
KJST 101202Z AUTO 27015G24KT 2SM -SN SCT012 BKN019 OVC025 M08/M12 A2963 RMK AO2 P0000 T10781117
KJST 101154Z AUTO 27019G25KT 3SM -SN BKN012 OVC018 M08/M11 A2962 RMK AO2 PK WND 26027/1119 SLP064 P0000 60000 70005 T10781111 11067 21078 53012
KJST 101132Z AUTO 27016G24KT 3SM -SN OVC012 M08/M11 A2962 RMK AO2 PK WND 26027/1119 P0000 T10781111
KJST 101122Z AUTO 26018G27KT 1 1/2SM -SN OVC011 M08/M11 A2961 RMK AO2 PK WND 26027/1119 P0000 T10781111
KJST 101113Z AUTO 27020G27KT 1 1/4SM -SN BKN009 OVC014 M08/M11 A2961 RMK AO2 PK WND 25027/1108 CIG 006V012 P0000 T10781111
KJST 101106Z AUTO 26014G25KT 1SM -SN BKN011 OVC014 M07/M11 A2961 RMK AO2 CIG 006V012 P0000 T10721106
KJST 101054Z AUTO 27016G22KT 1 1/2SM -SN BKN009 OVC014 M07/M11 A2960 RMK AO2 PK WND 28027/1020 CIG 006V012 SLP057 P0000 T10721106
KJST 101039Z AUTO 28011G24KT 1 1/4SM -SN OVC008 M07/M10 A2960 RMK AO2 PK WND 28027/1020 CIG 006V012 P0000 T10721100
KJST 101019Z AUTO 26018G21KT 2SM -SN BKN008 OVC013 M07/M11 A2960 RMK AO2 CIG 007V011 P0000 T10721106
KJST 101005Z AUTO 27017G22KT 4SM -SN OVC013 M07/M11 A2959 RMK AO2 P0000 T10721106
KJST 100958Z AUTO 27014G27KT 4SM -SN SCT011 OVC016 M07/M11 A2959 RMK AO2 P0000 T10721106
KJST 100954Z AUTO 27015G27KT 2 1/2SM -SN OVC011 M07/M11 A2959 RMK AO2 PK WND 27029/0924 VIS 2V5 UPE0855B26E29SNB22E26B29 SLP053 P0000 T10721106
KJST 100951Z AUTO 27018G24KT 2SM -SN OVC011 M07/M11 A2959 RMK AO2 PK WND 27029/0924 UPE0855B26E29SNB22E26B29 P0000
KJST 100938Z AUTO 27019G25KT 1 3/4SM -SN OVC009 M07/M10 A2959 RMK AO2 PK WND 27029/0924 UPE0855B26E29SNB22E26B29 CIG 006V012 P0000 T10721100
KJST 100854Z AUTO 26016G23KT 7SM UP OVC009 M07/M10 A2958 RMK AO2 PK WND 25027/0839 UPB01E15B45SNE01B15E45 SLP049 P0000 60000 T10671100 53002
KJST 100754Z AUTO 27017KT 5SM -SN OVC007 M07/M09 A2958 RMK AO2 CIG 006V010 SLP047 P0000 T10671094
KJST 100720Z AUTO 26017G23KT 3SM -SN OVC008 M07/M09 A2957 RMK AO2 CIG 006V011 P0000 T10671094
KJST 100710Z AUTO 27017G22KT 2 1/2SM -SN OVC008 M07/M09 A2957 RMK AO2 CIG 006V011 P0000 T10671094
KJST 100654Z AUTO 26013G21KT 1 3/4SM -SN OVC009 M07/M09 A2957 RMK AO2 CIG 006V012 SLP045 P0000 T10671094
KJST 100635Z AUTO 26015KT 2 1/2SM -SN OVC009 M07/M10 A2957 RMK AO2 CIG 006V013 P0000 T10671100
KJST 100554Z AUTO 25014KT 3SM -SN OVC006 M07/M09 A2958 RMK AO2 SLP047 P0000 60000 T10671094 11056 21067 57004
KJST 100454Z AUTO 26014G22KT 3SM -SN OVC006 M07/M09 A2958 RMK AO2 SLP048 P0000 T10671094 410061067
KJST 100354Z AUTO 26012G23KT 4SM -SN BR OVC005 M07/M09 A2959 RMK AO2 SLP046 P0000 T10671089
KJST 100254Z AUTO 26010KT 4SM -SN BR OVC006 M07/M09 A2959 RMK AO2 SLP048 P0000 60000 T10671089 53004
KJST 100201Z AUTO 26015G20KT 4SM -SN BKN007 OVC011 M06/M09 A2958 RMK AO2 CIG 006V009 P0000 T10611094
KJST 100154Z AUTO 26011KT 2 1/2SM -SN OVC009 M06/M09 A2958 RMK AO2 CIG 006V014 SLP045 P0000 T10611094
KJST 100151Z AUTO 25014G17KT 2 1/2SM -SN OVC009 M06/M09 A2958 RMK AO2 CIG 007V012 P0000
KJST 100054Z AUTO 25010KT 2SM -SN SCT010 OVC014 M06/M09 A2958 RMK AO2 SLP043 P0000 T10611089
KJST 100044Z AUTO 25010G20KT 2 1/2SM -SN BKN012 OVC016 M06/M09 A2958 RMK AO2 P0000 T10611094
KJST 100032Z AUTO 24012KT 3SM -SN BKN010 OVC015 M06/M09 A2957 RMK AO2 CIG 007V014 P0000 T10611089
KJST 092354Z AUTO 25011KT 3SM -SN OVC009 M06/M08 A2957 RMK AO2 CIG 005V013 SLP039 P0000 60001 T10561083 11044 21056 51016
KJST 092349Z AUTO 25011KT 3SM -SN BKN009 OVC013 M06/M08 A2957 RMK AO2 CIG 005V012 P0000
KJST 092310Z AUTO 25012KT 2SM -SN BR BKN009 OVC014 M06/M08 A2955 RMK AO2 CIG 006V012 P0000 T10561078
KJST 092301Z AUTO 25013KT 1 1/4SM -SN SCT007 OVC014 M06/M08 A2954 RMK AO2 P0000 T10561083
KJST 092254Z AUTO 25013KT 1 1/4SM -SN BR BKN007 OVC016 M06/M08 A2954 RMK AO2 CIG 005V011 SLP030 P0000 T10561078
KJST 092244Z AUTO 24011KT 3/4SM -SN BR BKN007 OVC014 M06/M08 A2954 RMK AO2 CIG 005V011 P0000 T10561078
KJST 092238Z AUTO 25009KT 1SM -SN BR SCT007 BKN012 OVC018 M06/M08 A2953 RMK AO2 P0000 T10561078
KJST 092230Z AUTO 26010KT 1 1/4SM -SN BKN011 OVC017 M05/M08 A2953 RMK AO2 P0000 T10501078
KJST 092218Z AUTO 25012KT 1 3/4SM -SN FEW009 OVC016 M05/M08 A2953 RMK AO2 P0000 T10501083
KJST 092210Z AUTO 25011KT 2SM -SN FEW007 OVC014 M05/M08 A2953 RMK AO2 P0000 T10501083
KJST 092154Z AUTO 25011KT 1 1/4SM -SN FEW007 BKN013 OVC019 M05/M08 A2952 RMK AO2 SLP022 P0000 T10501078
KJST 092133Z AUTO 25009KT 1SM -SN FEW007 BKN012 OVC018 M05/M08 A2951 RMK AO2 P0000 T10501078
KJST 092119Z AUTO 25009KT 3/4SM -SN SCT009 BKN015 OVC021 M05/M08 A2950 RMK AO2 P0000 T10501078
KJST 092054Z AUTO 25011KT 1 1/4SM -SN SCT009 BKN014 OVC022 M05/M08 A2949 RMK AO2 SLP013 P0000 60001 T10501083 51010
KJST 092049Z AUTO 25012KT 1SM -SN FEW008 BKN014 OVC022 M05/M08 A2949 RMK AO2 P0000
KJST 092029Z AUTO 25010KT 1 1/4SM -SN BKN014 BKN029 OVC038 M04/M08 A2948 RMK AO2 P0000 T10441083
KJST 092015Z AUTO 25013KT 2 1/2SM -SN BKN016 BKN032 OVC039 M05/M08 A2947 RMK AO2 P0000 T10501083
KJST 091959Z AUTO 26014KT 3SM -SN FEW010 OVC015 M05/M08 A2947 RMK AO2 P0000 T10501083
KJST 091954Z AUTO 25012KT 2 1/2SM -SN OVC013 M05/M08 A2947 RMK AO2 SLP006 P0000 T10501083
KJST 091946Z AUTO 25013KT 1 3/4SM -SN BKN008 OVC013 M05/M08 A2947 RMK AO2 CIG 007V012 P0000 T10501083
KJST 091938Z AUTO 26013KT 2 1/2SM -SN SCT008 OVC013 M05/M08 A2947 RMK AO2 P0000 T10501083
KJST 091930Z AUTO 25014G18KT 4SM -SN OVC009 M04/M08 A2947 RMK AO2 CIG 007V013 P0000 T10441078
KJST 091918Z AUTO 24014KT 2SM -SN OVC008 M04/M08 A2946 RMK AO2 CIG 007V014 P0000 T10441078
KJST 091854Z AUTO 25012KT 1 1/4SM -SN OVC010 M04/M08 A2946 RMK AO2 SLP001 P0001 T10441078
KJST 091849Z AUTO 25014KT 1SM -SN SCT007 OVC012 M04/M08 A2946 RMK AO2 P0001
KJST 091824Z AUTO 25010KT 1/2SM SN FZFG BKN009 OVC013 M04/M07 A2946 RMK AO2 P0001 T10441067
KJST 091801Z AUTO 24012KT 1/4SM +SN VV008 M04/M07 A2947 RMK AO2 P0000 T10441072
KJST 091754Z AUTO 24012KT 1/2SM SN SCT007 OVC012 M04/M07 A2947 RMK AO2 SLP004 P0000 60004 T10441072 11011 21044 58004
KJST 091746Z AUTO 24012KT 1/2SM SN SCT007 OVC012 M04/M07 A2947 RMK AO2 P0000 T10391067
KJST 091719Z AUTO 24012KT 3/4SM -SN BKN007 OVC013 M03/M07 A2947 RMK AO2 CIG 004V010 P0000 T10331067
KJST 091710Z AUTO 24012KT 1SM -SN OVC007 M03/M07 A2947 RMK AO2 P0000 T10331067
KJST 091654Z AUTO 24011KT 1/2SM SN FZFG OVC005 M03/M06 A2947 RMK AO2 SLP005 P0003 T10331056
KJST 091628Z AUTO 24009KT 1/4SM SN FZFG BKN005 OVC012 M02/M04 A2947 RMK AO2 P0002 T10171039
KJST 091618Z AUTO 25007KT 1/2SM SN FZFG SCT005 OVC013 M02/M04 A2948 RMK AO2 P0001 T10171039
KJST 091554Z AUTO 26006KT 3/4SM -SN BKN006 OVC011 M02/M04 A2948 RMK AO2 SNB07 SLP005 P0000 T10171044
KJST 091521Z AUTO 27006KT 1 1/4SM -SN BKN006 OVC010 M02/M04 A2948 RMK AO2 SNB07 P0000 T10171044
KJST 091511Z AUTO 29005KT 2 1/2SM -SN OVC008 M01/M04 A2948 RMK AO2 SNB07 P0000 T10111044
KJST 091454Z AUTO 29005KT 4SM HZ SCT006 BKN010 OVC048 M02/M04 A2948 RMK AO2 SNE44 SLP004 P0000 60001 T10171044 50003
KJST 091443Z AUTO 29005KT 4SM -SN BR FEW006 BKN044 OVC055 M02/M04 A2948 RMK AO2 P0000 T10171039
KJST 091423Z AUTO 29005KT 2SM -SN BR FEW005 BKN030 OVC038 M02/M04 A2948 RMK AO2 P0000 T10171039
KJST 091354Z AUTO 30005KT 1 1/4SM -SN BR SCT005 OVC025 M02/M04 A2948 RMK AO2 SLP004 P0000 T10171039
KJST 091254Z AUTO 31005KT 1SM -SN BR FEW004 OVC025 M02/M04 A2947 RMK AO2 SLP001 P0001 T10221039
KJST 091222Z AUTO 31005KT 1 1/4SM -SN BR SCT005 OVC019 M02/M04 A2947 RMK AO2 P0000 T10221044
KJST 091154Z AUTO 31005KT 1 3/4SM -SN BKN005 OVC010 M02/M04 A2946 RMK AO2 SNB28 SLP998 P0000 60000 T10171044 11011 21017 55000
KJST 091141Z AUTO 00000KT 2 1/2SM -SN BKN008 OVC012 M02/M04 A2946 RMK AO2 SNB28 P0000 T10171044
KJST 091120Z AUTO 00000KT 9SM BKN010 BKN016 OVC048 M02/M04 A2946 RMK AO2 T10171044
KJST 091054Z AUTO 00000KT 10SM OVC055 M02/M04 A2946 RMK AO2 SLP995 T10171044
KJST 090954Z AUTO 00000KT 10SM FEW055 BKN070 OVC080 M02/M04 A2946 RMK AO2 SLP994 T10171044
KJST 090925Z AUTO 00000KT 10SM SCT010 BKN030 OVC085 M02/M04 A2946 RMK AO2 T10171044
KJST 090854Z AUTO 00000KT 10SM BKN011 OVC028 M02/M04 A2946 RMK AO2 SLP996 T10171044 56015
KJST 090817Z AUTO 00000KT 10SM BKN027 BKN033 M02/M04 A2947 RMK AO2 T10171044